createdAt,value
2022-10-30T12:17:26.352Z,1008.46
2022-10-30T12:18:26.321Z,1008.51
2022-10-30T12:19:26.297Z,1008.47
2022-10-30T12:20:26.290Z,1008.48
2022-10-30T12:21:26.290Z,1008.52
2022-10-30T12:22:26.258Z,1008.51
2022-10-30T12:23:26.242Z,1008.53
2022-10-30T12:24:26.229Z,1008.51
2022-10-30T12:25:26.223Z,1008.50
2022-10-30T12:26:26.220Z,1008.54
2022-10-30T12:27:26.195Z,1008.52
2022-10-30T12:28:26.188Z,1008.52
2022-10-30T12:29:36.501Z,1008.52
2022-10-30T12:30:26.148Z,1008.53
2022-10-30T12:31:26.177Z,1008.53
2022-10-30T12:32:26.129Z,1008.53
2022-10-30T12:33:26.118Z,1008.46
2022-10-30T12:34:26.096Z,1008.48
2022-10-30T12:35:26.090Z,1008.48
2022-10-30T12:36:26.082Z,1008.47
2022-10-30T12:37:26.068Z,1008.50
2022-10-30T12:38:26.053Z,1008.46
2022-10-30T12:39:26.043Z,1008.46
2022-10-30T12:40:26.026Z,1008.48
2022-10-30T12:41:26.053Z,1008.46
2022-10-30T12:42:25.993Z,1008.46
2022-10-30T12:43:25.978Z,1008.44
2022-10-30T12:44:25.967Z,1008.42
2022-10-30T12:45:25.953Z,1008.44
2022-10-30T12:46:25.960Z,1008.41
2022-10-30T12:47:25.934Z,1008.39
2022-10-30T12:48:25.914Z,1008.37
2022-10-30T12:49:25.912Z,1008.41
2022-10-30T12:50:25.892Z,1008.43
2022-10-30T12:51:25.897Z,1008.41
2022-10-30T12:52:25.867Z,1008.43
2022-10-30T12:53:25.859Z,1008.42
2022-10-30T12:54:25.852Z,1008.38
2022-10-30T12:55:25.837Z,1008.42
2022-10-30T12:56:25.840Z,1008.40
2022-10-30T12:57:25.803Z,1008.42
2022-10-30T12:58:25.799Z,1008.43
2022-10-30T12:59:25.774Z,1008.43
2022-10-30T13:00:25.763Z,1008.38
2022-10-30T13:01:25.873Z,1008.37
2022-10-30T13:02:25.784Z,1008.37
2022-10-30T13:03:25.730Z,1008.39
2022-10-30T13:04:25.725Z,1008.39
2022-10-30T13:05:25.713Z,1008.40
2022-10-30T13:06:25.808Z,1008.35
2022-10-30T13:07:25.678Z,1008.38
2022-10-30T13:08:25.675Z,1008.38
2022-10-30T13:09:25.660Z,1008.39
2022-10-30T13:10:25.649Z,1008.41
2022-10-30T13:11:25.647Z,1008.39
2022-10-30T13:12:25.620Z,1008.38
2022-10-30T13:13:25.610Z,1008.39
2022-10-30T13:14:25.590Z,1008.35
2022-10-30T13:15:25.584Z,1008.33
2022-10-30T13:16:25.577Z,1008.34
2022-10-30T13:17:25.562Z,1008.32
2022-10-30T13:18:25.551Z,1008.33
2022-10-30T13:19:25.534Z,1008.29
2022-10-30T13:20:25.525Z,1008.27
2022-10-30T13:21:25.521Z,1008.32
2022-10-30T13:22:25.493Z,1008.30
2022-10-30T13:23:25.476Z,1008.27
2022-10-30T13:24:25.460Z,1008.25
2022-10-30T13:25:25.457Z,1008.29
2022-10-30T13:51:32.224Z,1008.15
2022-10-30T13:53:29.737Z,1008.11
2022-10-30T13:54:29.722Z,1008.11
2022-10-30T13:55:29.704Z,1008.10
